Terminal Aerodrome Forecast
Issued by NWS

Home | Current Version | Previous Version | Graphics & Text | Print | Product List | Glossary On
Versions: 1 2 3 4 5 6 7 8 9 10 11 12 13 14 15 16
000
FTUS43 KTOP 282338
TAFMHK
TAF
KMHK 282338Z 2900/2924 20014G21KT P6SM SCT070
     FM290100 19012KT P6SM VCTS SCT060CB
      TEMPO 2901/2905 VRB15G25KT 4SM -TSRA BR BKN040CB
     FM291000 03008KT P6SM SCT040 BKN150=

USA.gov is the U.S. government's official web portal to all federal, state and local government web resources and services.